sensor_id;sensor_type;location;lat;lon;timestamp;temperature;humidity
12421;DHT22;6275;43.688;1.408;2023-02-15T00:46:06;0.40;99.90
12421;DHT22;6275;43.688;1.408;2023-02-15T00:48:33;0.40;99.90
12421;DHT22;6275;43.688;1.408;2023-02-15T00:51:00;0.40;99.90
12421;DHT22;6275;43.688;1.408;2023-02-15T00:53:29;0.40;99.90
12421;DHT22;6275;43.688;1.408;2023-02-15T00:55:57;0.40;99.90
12421;DHT22;6275;43.688;1.408;2023-02-15T00:58:25;0.30;99.90
12421;DHT22;6275;43.688;1.408;2023-02-15T01:00:52;0.10;99.90
12421;DHT22;6275;43.688;1.408;2023-02-15T01:03:20;-0.10;99.90
12421;DHT22;6275;43.688;1.408;2023-02-15T01:05:48;-0.10;99.90
12421;DHT22;6275;43.688;1.408;2023-02-15T01:08:16;-0.10;99.90
12421;DHT22;6275;43.688;1.408;2023-02-15T01:10:43;0.00;99.90
12421;DHT22;6275;43.688;1.408;2023-02-15T01:13:10;0.00;99.90
12421;DHT22;6275;43.688;1.408;2023-02-15T01:15:37;-0.10;99.90
12421;DHT22;6275;43.688;1.408;2023-02-15T01:18:04;-0.20;99.90
12421;DHT22;6275;43.688;1.408;2023-02-15T01:20:35;-0.10;99.90
12421;DHT22;6275;43.688;1.408;2023-02-15T01:23:03;-0.10;99.90
12421;DHT22;6275;43.688;1.408;2023-02-15T01:25:30;-0.10;99.90
12421;DHT22;6275;43.688;1.408;2023-02-15T01:27:57;-0.10;99.90
12421;DHT22;6275;43.688;1.408;2023-02-15T01:30:24;-0.10;99.90
12421;DHT22;6275;43.688;1.408;2023-02-15T01:32:51;-0.20;99.90
12421;DHT22;6275;43.688;1.408;2023-02-15T01:35:18;-0.30;99.90
12421;DHT22;6275;43.688;1.408;2023-02-15T01:37:45;-0.30;99.90
12421;DHT22;6275;43.688;1.408;2023-02-15T01:40:15;-0.30;99.90
12421;DHT22;6275;43.688;1.408;2023-02-15T01:42:43;-0.30;99.90
12421;DHT22;6275;43.688;1.408;2023-02-15T01:48:33;-0.40;99.90
12421;DHT22;6275;43.688;1.408;2023-02-15T01:50:41;-0.40;99.90
12421;DHT22;6275;43.688;1.408;2023-02-15T01:56:11;-0.40;99.90
12421;DHT22;6275;43.688;1.408;2023-02-15T01:58:40;-0.40;99.90
12421;DHT22;6275;43.688;1.408;2023-02-15T02:01:08;-0.50;99.90
12421;DHT22;6275;43.688;1.408;2023-02-15T02:03:56;-0.50;99.90
12421;DHT22;6275;43.688;1.408;2023-02-15T02:06:26;-0.40;99.90
12421;DHT22;6275;43.688;1.408;2023-02-15T02:08:54;-0.40;99.90
12421;DHT22;6275;43.688;1.408;2023-02-15T02:11:22;-0.40;99.90
12421;DHT22;6275;43.688;1.408;2023-02-15T02:13:50;-0.30;99.90
12421;DHT22;6275;43.688;1.408;2023-02-15T02:22:11;-0.30;99.90
12421;DHT22;6275;43.688;1.408;2023-02-15T02:27:44;-0.30;99.90
12421;DHT22;6275;43.688;1.408;2023-02-15T02:44:19;-0.40;99.90
12421;DHT22;6275;43.688;1.408;2023-02-15T02:47:04;-0.50;99.90
12421;DHT22;6275;43.688;1.408;2023-02-15T02:49:38;-0.70;99.90
12421;DHT22;6275;43.688;1.408;2023-02-15T02:54:54;-0.70;99.90
12421;DHT22;6275;43.688;1.408;2023-02-15T02:57:23;-0.70;99.90
12421;DHT22;6275;43.688;1.408;2023-02-15T02:59:51;-0.80;99.90
12421;DHT22;6275;43.688;1.408;2023-02-15T03:02:25;-0.90;99.90
12421;DHT22;6275;43.688;1.408;2023-02-15T03:05:00;-0.80;99.90
12421;DHT22;6275;43.688;1.408;2023-02-15T03:07:31;-0.70;99.90
12421;DHT22;6275;43.688;1.408;2023-02-15T03:10:02;-0.70;99.90
12421;DHT22;6275;43.688;1.408;2023-02-15T03:12:37;-0.80;99.90
12421;DHT22;6275;43.688;1.408;2023-02-15T03:15:15;-0.90;99.90
12421;DHT22;6275;43.688;1.408;2023-02-15T03:17:44;-0.90;99.90
12421;DHT22;6275;43.688;1.408;2023-02-15T03:20:29;-0.90;99.90
12421;DHT22;6275;43.688;1.408;2023-02-15T03:23:01;-0.90;99.90
12421;DHT22;6275;43.688;1.408;2023-02-15T03:25:40;-0.90;99.90
12421;DHT22;6275;43.688;1.408;2023-02-15T03:28:13;-0.80;99.90
12421;DHT22;6275;43.688;1.408;2023-02-15T03:30:45;-0.80;99.90
12421;DHT22;6275;43.688;1.408;2023-02-15T03:33:15;-0.90;99.90
12421;DHT22;6275;43.688;1.408;2023-02-15T03:35:51;-0.90;99.90
12421;DHT22;6275;43.688;1.408;2023-02-15T03:38:37;-0.90;99.90
12421;DHT22;6275;43.688;1.408;2023-02-15T03:41:07;-0.90;99.90
12421;DHT22;6275;43.688;1.408;2023-02-15T03:46:40;-1.00;99.90
12421;DHT22;6275;43.688;1.408;2023-02-15T03:51:48;-0.90;99.90
12421;DHT22;6275;43.688;1.408;2023-02-15T03:54:25;-1.00;99.90
12421;DHT22;6275;43.688;1.408;2023-02-15T04:00:18;-1.20;99.90
12421;DHT22;6275;43.688;1.408;2023-02-15T04:03:23;-1.10;99.90
12421;DHT22;6275;43.688;1.408;2023-02-15T04:05:54;-1.30;99.90
12421;DHT22;6275;43.688;1.408;2023-02-15T04:08:21;-1.20;99.90
12421;DHT22;6275;43.688;1.408;2023-02-15T04:11:07;-1.00;99.90
12421;DHT22;6275;43.688;1.408;2023-02-15T04:13:34;-0.70;99.90
12421;DHT22;6275;43.688;1.408;2023-02-15T04:16:02;-0.40;99.90
12421;DHT22;6275;43.688;1.408;2023-02-15T04:18:40;-0.10;99.90
12421;DHT22;6275;43.688;1.408;2023-02-15T04:21:29;0.10;99.90
12421;DHT22;6275;43.688;1.408;2023-02-15T04:24:15;0.00;99.90
12421;DHT22;6275;43.688;1.408;2023-02-15T04:27:03;0.00;99.90
12421;DHT22;6275;43.688;1.408;2023-02-15T04:29:31;0.10;99.90
12421;DHT22;6275;43.688;1.408;2023-02-15T04:31:59;0.30;99.90
12421;DHT22;6275;43.688;1.408;2023-02-15T04:34:27;0.60;99.90
12421;DHT22;6275;43.688;1.408;2023-02-15T04:36:54;0.80;99.90
12421;DHT22;6275;43.688;1.408;2023-02-15T04:39:21;0.60;99.90
12421;DHT22;6275;43.688;1.408;2023-02-15T04:41:48;0.60;99.90
12421;DHT22;6275;43.688;1.408;2023-02-15T04:44:15;0.40;99.90
12421;DHT22;6275;43.688;1.408;2023-02-15T04:46:42;0.70;99.90
12421;DHT22;6275;43.688;1.408;2023-02-15T04:49:09;1.00;99.90
12421;DHT22;6275;43.688;1.408;2023-02-15T04:51:36;1.30;99.90
12421;DHT22;6275;43.688;1.408;2023-02-15T04:54:03;1.50;99.90
12421;DHT22;6275;43.688;1.408;2023-02-15T04:56:30;1.80;99.90
12421;DHT22;6275;43.688;1.408;2023-02-15T04:58:59;1.90;99.90
12421;DHT22;6275;43.688;1.408;2023-02-15T05:01:26;1.70;99.90
12421;DHT22;6275;43.688;1.408;2023-02-15T05:03:53;1.90;99.90
12421;DHT22;6275;43.688;1.408;2023-02-15T05:06:20;2.40;99.90
12421;DHT22;6275;43.688;1.408;2023-02-15T05:08:48;2.50;99.90
12421;DHT22;6275;43.688;1.408;2023-02-15T05:11:15;1.70;99.90
12421;DHT22;6275;43.688;1.408;2023-02-15T05:13:41;1.00;99.90
12421;DHT22;6275;43.688;1.408;2023-02-15T05:16:08;0.50;99.90
12421;DHT22;6275;43.688;1.408;2023-02-15T05:18:35;0.10;99.90
12421;DHT22;6275;43.688;1.408;2023-02-15T05:21:02;-0.20;99.90
12421;DHT22;6275;43.688;1.408;2023-02-15T05:23:29;-0.30;99.90
12421;DHT22;6275;43.688;1.408;2023-02-15T05:25:56;-0.30;99.90
12421;DHT22;6275;43.688;1.408;2023-02-15T05:28:42;-0.30;99.90
12421;DHT22;6275;43.688;1.408;2023-02-15T05:31:17;-0.20;99.90
12421;DHT22;6275;43.688;1.408;2023-02-15T05:33:45;-0.10;99.90
12421;DHT22;6275;43.688;1.408;2023-02-15T05:36:13;-0.20;99.90
12421;DHT22;6275;43.688;1.408;2023-02-15T05:38:40;-0.30;99.90
12421;DHT22;6275;43.688;1.408;2023-02-15T05:41:08;-0.50;99.90
12421;DHT22;6275;43.688;1.408;2023-02-15T05:43:36;-0.70;99.90
12421;DHT22;6275;43.688;1.408;2023-02-15T05:46:03;-0.60;99.90
12421;DHT22;6275;43.688;1.408;2023-02-15T05:48:31;-0.60;99.90
12421;DHT22;6275;43.688;1.408;2023-02-15T05:51:10;-0.50;99.90
12421;DHT22;6275;43.688;1.408;2023-02-15T05:53:40;-0.60;99.90
12421;DHT22;6275;43.688;1.408;2023-02-15T05:56:10;-0.80;99.90
12421;DHT22;6275;43.688;1.408;2023-02-15T05:58:40;-0.90;99.90
12421;DHT22;6275;43.688;1.408;2023-02-15T06:01:12;-0.90;99.90
12421;DHT22;6275;43.688;1.408;2023-02-15T06:03:39;-0.80;99.90
12421;DHT22;6275;43.688;1.408;2023-02-15T06:06:07;-0.90;99.90
12421;DHT22;6275;43.688;1.408;2023-02-15T06:08:36;-0.80;99.90
12421;DHT22;6275;43.688;1.408;2023-02-15T06:11:03;-0.80;99.90
12421;DHT22;6275;43.688;1.408;2023-02-15T06:13:31;-0.80;99.90
12421;DHT22;6275;43.688;1.408;2023-02-15T06:15:58;-0.80;99.90
12421;DHT22;6275;43.688;1.408;2023-02-15T06:18:26;-0.70;99.90
12421;DHT22;6275;43.688;1.408;2023-02-15T06:20:53;-0.90;99.90
12421;DHT22;6275;43.688;1.408;2023-02-15T06:23:20;-1.10;99.90
12421;DHT22;6275;43.688;1.408;2023-02-15T06:25:47;-1.00;99.90
12421;DHT22;6275;43.688;1.408;2023-02-15T06:28:14;-1.10;99.90
12421;DHT22;6275;43.688;1.408;2023-02-15T06:30:41;-1.10;99.90
12421;DHT22;6275;43.688;1.408;2023-02-15T06:33:08;-1.30;99.90
12421;DHT22;6275;43.688;1.408;2023-02-15T06:35:35;-1.30;99.90
12421;DHT22;6275;43.688;1.408;2023-02-15T06:38:02;-1.20;99.90
12421;DHT22;6275;43.688;1.408;2023-02-15T06:40:29;-1.30;99.90
12421;DHT22;6275;43.688;1.408;2023-02-15T06:42:55;-1.30;99.90
12421;DHT22;6275;43.688;1.408;2023-02-15T06:45:22;-1.30;99.90
12421;DHT22;6275;43.688;1.408;2023-02-15T06:47:49;-1.30;99.90
12421;DHT22;6275;43.688;1.408;2023-02-15T06:50:16;-1.30;99.90
12421;DHT22;6275;43.688;1.408;2023-02-15T06:52:43;-1.40;99.90
12421;DHT22;6275;43.688;1.408;2023-02-15T06:55:10;-1.50;99.90
12421;DHT22;6275;43.688;1.408;2023-02-15T06:57:37;-1.40;99.90
12421;DHT22;6275;43.688;1.408;2023-02-15T07:00:04;-1.20;99.90
12421;DHT22;6275;43.688;1.408;2023-02-15T07:02:32;-1.00;99.90
12421;DHT22;6275;43.688;1.408;2023-02-15T07:04:59;-0.90;99.90
12421;DHT22;6275;43.688;1.408;2023-02-15T07:07:26;-0.90;99.90
12421;DHT22;6275;43.688;1.408;2023-02-15T07:09:53;-0.70;99.90
12421;DHT22;6275;43.688;1.408;2023-02-15T07:12:20;-0.40;99.90
12421;DHT22;6275;43.688;1.408;2023-02-15T07:15:07;-0.20;99.90
12421;DHT22;6275;43.688;1.408;2023-02-15T07:17:36;-0.20;99.90
12421;DHT22;6275;43.688;1.408;2023-02-15T07:20:04;-0.20;99.90
12421;DHT22;6275;43.688;1.408;2023-02-15T07:22:32;-0.20;99.90
12421;DHT22;6275;43.688;1.408;2023-02-15T07:25:00;0.00;99.90
12421;DHT22;6275;43.688;1.408;2023-02-15T07:27:27;-0.10;99.90
12421;DHT22;6275;43.688;1.408;2023-02-15T07:29:54;-0.10;99.90
12421;DHT22;6275;43.688;1.408;2023-02-15T07:32:21;0.20;99.90
12421;DHT22;6275;43.688;1.408;2023-02-15T07:34:48;0.50;99.90
12421;DHT22;6275;43.688;1.408;2023-02-15T07:37:15;0.70;99.90
12421;DHT22;6275;43.688;1.408;2023-02-15T07:39:42;0.80;99.90
12421;DHT22;6275;43.688;1.408;2023-02-15T07:42:09;0.80;99.90
12421;DHT22;6275;43.688;1.408;2023-02-15T07:44:36;0.80;99.90
12421;DHT22;6275;43.688;1.408;2023-02-15T07:47:03;0.90;99.90
12421;DHT22;6275;43.688;1.408;2023-02-15T07:49:30;1.00;99.90
12421;DHT22;6275;43.688;1.408;2023-02-15T07:51:57;1.00;99.90
12421;DHT22;6275;43.688;1.408;2023-02-15T07:54:24;1.20;99.90
12421;DHT22;6275;43.688;1.408;2023-02-15T07:56:50;1.50;99.90
12421;DHT22;6275;43.688;1.408;2023-02-15T07:59:17;1.70;99.90
12421;DHT22;6275;43.688;1.408;2023-02-15T08:01:44;1.90;99.90
12421;DHT22;6275;43.688;1.408;2023-02-15T08:04:11;2.00;99.90
12421;DHT22;6275;43.688;1.408;2023-02-15T08:06:38;2.30;99.90
12421;DHT22;6275;43.688;1.408;2023-02-15T08:09:07;2.50;99.90
12421;DHT22;6275;43.688;1.408;2023-02-15T08:11:36;2.50;99.90
12421;DHT22;6275;43.688;1.408;2023-02-15T08:14:04;2.70;99.90
12421;DHT22;6275;43.688;1.408;2023-02-15T08:16:52;2.90;99.90
12421;DHT22;6275;43.688;1.408;2023-02-15T08:19:26;3.40;99.90
12421;DHT22;6275;43.688;1.408;2023-02-15T08:22:02;3.60;99.90
12421;DHT22;6275;43.688;1.408;2023-02-15T08:24:33;4.80;99.90
12421;DHT22;6275;43.688;1.408;2023-02-15T08:27:01;5.10;99.90
